NCAR-RAP Real-Time Weather Data

Output produced by METARs form (26 May 2022  08:19 UTC)
found at http://weather.rap.ucar.edu/surface/
 
KEVV 260754Z AUTO 18005KT 10SM RA SCT040 BKN049 OVC060 21/18 A2987 RMK AO2 SLP113 P0000 T02060178 $
KEVV 260720Z AUTO 17009KT 10SM RA SCT030 OVC037 21/18 A2988 RMK AO2 P0000 T02060178 $
KEVV 260654Z AUTO 18007KT 10SM RA OVC028 20/18 A2989 RMK AO2 SLP117 P0000 T02000178 $
KEVV 260554Z AUTO 16005KT 10SM RA SCT022 BKN028 OVC046 20/17 A2989 RMK AO2 SLP117 P0000 60021 T02000172 10250 20194 402780183 51006 $
KEVV 260454Z AUTO 17004KT 10SM RA SCT065 BKN090 19/17 A2988 RMK AO2 SLP116 P0000 T01940172 $
KEVV 260354Z AUTO 16006KT 10SM RA SCT100 19/17 A2988 RMK AO2 SLP116 P0000 T01940172 $
KEVV 260254Z 16004KT 10SM RA BKN100 19/18 A2987 RMK AO2 SLP112 P0003 60021 T01940178 51009 $
KEVV 260159Z 19008G27KT 10SM +RA FEW021 BKN043 20/18 A2986 RMK AO2 P0002 T02000178 $
KEVV 260157Z 19011G27KT 1 3/4SM R22/2800VP6000FT +RA BR FEW024 BKN040 21/18 A2986 RMK AO2 P0001 T02060183 $
KEVV 260154Z 19015G30KT 3/4SM R22/2400VP6000FT +RA BR FEW022 BKN032 BKN042 20/19 A2986 RMK AO2 PK WND 22030/0146 RAB45 SLP108 P0018 T02000189 $
KEVV 260151Z 20020G30KT 3/4SM R22/2400VP6000FT +RA BR SCT024 BKN042 21/19 A2986 RMK AO2 PK WND 22030/0146 RAB45 P0005 $
KEVV 260054Z 15010G22KT 10SM SCT030 BKN110 24/19 A2984 RMK AO2 SLP103 T02390189 $
KEVV 252354Z 16011G20KT 10SM SCT030 BKN035 BKN110 25/19 A2984 RMK AO2 PK WND 16026/2336 SLP101 60027 T02500189 10278 20228 57002 $
KEVV 252254Z 16015G23KT 10SM FEW020 24/19 A2984 RMK AO2 SLP102 T02440189 $
KEVV 252154Z 15010G22KT 100V170 10SM CLR 25/19 A2985 RMK AO2 SLP104 T02500194 $
KEVV 252054Z 15011G24KT 10SM BKN031 BKN065 BKN095 26/20 A2985 RMK AO2 SLP103 60027 T02560200 58022 $
KEVV 251954Z 14007G20KT 10SM FEW033 SCT050 BKN090 24/21 A2988 RMK AO2 PK WND 14026/1919 RAB14E48 SLP116 P0027 T02390211 $
KEVV 251928Z 17010G26KT 7SM R22/2400VP6000FT +RA BKN035 OVC046 23/19 A2989 RMK AO2 PK WND 14026/1919 RAB14 P0013 T02280194 $
KEVV 251921Z 16016G26KT 1 1/2SM R22/2800VP6000FT +RA BKN038 BKN047 BKN070 23/20 A2989 RMK AO2 PK WND 14026/1919 VIS 3/4V5 RAB14 P0003 T02330200 $
KEVV 251854Z 16009G25KT 10SM BKN035 BKN042 27/19 A2989 RMK AO2 PK WND 14027/1812 SLP118 T02720189 $
KEVV 251754Z 18013G23KT 10SM SCT034 BKN045 BKN065 27/19 A2991 RMK AO2 SLP125 60006 T02670194 10272 20206 56010 $
KEVV 251654Z 15013G27KT 10SM BKN027 BKN031 BKN038 26/20 A2992 RMK AO2 PK WND 17027/1647 SLP127 T02610200 $
KEVV 251554Z 16012G19KT 10SM FEW021 26/20 A2993 RMK AO2 SLP131 T02560200 $
KEVV 251536Z 18011G22KT 10SM SCT018 25/21 A2994 RMK AO2 T02500206 $
KEVV 251454Z 15010G17KT 10SM OVC016 22/19 A2994 RMK AO2 RAB1359E11 SLP136 P0000 60006 T02220194 58008 $
KEVV 251354Z 18004KT 10SM OVC015 21/19 A2998 RMK AO2 RAE24 SLP149 P0003 T02110189 $
KEVV 251254Z 23007KT 6SM RA BR BKN015 OVC029 21/19 A2999 RMK AO2 RAB08E24B51 SLP152 P0003 T02060189 $
KEVV 251154Z 13006KT 10SM SCT013 BKN033 BKN065 21/18 A2997 RMK AO2 SLP144 60001 70030 T02060183 10206 20189 53003 $
KEVV 251054Z 13005KT 10SM SCT011 BKN046 OVC070 20/18 A2996 RMK AO2 SLP141 T02000183 $
KEVV 251022Z AUTO VRB03KT 10SM BKN009 OVC013 20/18 A2995 RMK AO2 CIG 008V012 T02000183 $
KEVV 250954Z AUTO 11004KT 10SM BKN010 OVC036 20/19 A2995 RMK AO2 CIG 008V013 SLP140 T02000189 $
KEVV 250907Z AUTO 16005KT 10SM FEW008 BKN033 OVC050 20/19 A2996 RMK AO2 T02000189 $
KEVV 250854Z AUTO 15005KT 10SM FEW010 SCT021 BKN050 20/19 A2996 RMK AO2 RAE23 SLP141 P0000 60001 T02000189 55001 $
KEVV 250834Z AUTO 15006KT 10SM SCT010 BKN022 OVC055 20/19 A2996 RMK AO2 RAE23 P0000 T02000189 $
KEVV 250754Z AUTO 16006KT 10SM -RA FEW011 BKN018 OVC029 20/18 A2995 RMK AO2 RAE0659B16E28B54 SLP140 P0000 T02000183 $
KEVV 250725Z AUTO 13005KT 10SM -RA FEW009 BKN015 OVC020 19/18 A2994 RMK AO2 RAE0659B16 P0000 T01940178 $
KEVV 250701Z AUTO 11007KT 10SM FEW015 BKN021 OVC027 19/18 A2995 RMK AO2 RAE0659 P0000 T01890178 $
KEVV 250654Z AUTO 13006KT 10SM -RA BKN013 OVC021 19/18 A2995 RMK AO2 RAE25B47 SLP138 P0001 T01890178 $
KEVV 250628Z AUTO VRB04KT 10SM BKN013 OVC020 19/17 A2995 RMK AO2 RAE25 P0001 T01890172 $
KEVV 250616Z AUTO 10007KT 10SM -RA SCT010 OVC020 19/17 A2995 RMK AO2 P0000 T01890172 $
KEVV 250554Z AUTO 10008KT 6SM -RA BR BKN010 BKN013 OVC018 19/17 A2996 RMK AO2 LTG DSNT N SLP142 P0028 60029 T01890172 10233 20183 402500133 56013 $
KEVV 250550Z AUTO 11007KT 6SM -RA BR SCT010 BKN013 OVC026 19/17 A2996 RMK AO2 LTG DSNT N P0027 $
KEVV 250542Z AUTO 09007KT 5SM -RA BR BKN009 BKN015 OVC026 19/17 A2996 RMK AO2 LTG DSNT N P0027 T01890172 $
KEVV 250535Z AUTO 08007KT 2 1/2SM R22/6000VP6000FT RA BR BKN009 BKN015 OVC024 19/17 A2996 RMK AO2 P0025 T01890172 $
KEVV 250522Z AUTO VRB05KT 1 3/4SM R22/6000VP6000FT +RA BR SCT009 BKN012 OVC029 19/17 A2998 RMK AO2 VIS 1V5 P0007 T01890172 $
KEVV 250514Z AUTO 00000KT 4SM RA BR BKN012 BKN017 OVC029 19/17 A2999 RMK AO2 P0003 T01890172 $
KEVV 250454Z AUTO 11005KT 8SM -RA SCT013 BKN032 OVC046 19/17 A2998 RMK AO2 RAB25 SLP150 P0001 T01890172 $
KEVV 250354Z AUTO 11009G16KT 10SM OVC045 19/16 A3000 RMK AO2 SLP156 T01940161 $
KEVV 250254Z AUTO 10009G16KT 10SM BKN036 OVC048 20/16 A3000 RMK AO2 RAB19E46 SLP156 P0000 60000 T02000161 51006 $
KEVV 250154Z AUTO 10009KT 10SM SCT065 OVC080 21/16 A2999 RMK AO2 SLP154 T02110156 $
KEVV 250054Z AUTO 11008KT 10SM FEW065 BKN095 BKN120 22/16 A3000 RMK AO2 SLP156 T02220156 $
KEVV 242354Z AUTO 11007KT 10SM CLR 23/16 A2998 RMK AO2 SLP150 T02330156 10250 20217 55006 $
KEVV 242254Z 11007G16KT 10SM CLR 24/16 A2998 RMK AO2 SLP149 T02440161 $
KEVV 242154Z 09011KT 10SM CLR 24/16 A2999 RMK AO2 SLP153 T02440161 $
KEVV 242054Z 11008KT 10SM CLR 25/16 A3000 RMK AO2 SLP156 T02500161 58027 $
KEVV 241954Z 12007G16KT 080V150 10SM CLR 24/16 A3003 RMK AO2 SLP167 T02390156 $
KEVV 241854Z 09009G17KT 10SM CLR 23/15 A3006 RMK AO2 SLP176 T02280150 $
KEVV 241754Z 08007KT 10SM FEW027 22/14 A3008 RMK AO2 SLP184 T02220144 10222 20139 58018 $
KEVV 241740Z 09008KT 060V130 10SM FEW027 22/14 A3008 RMK AO2 T02170139 $
KEVV 241654Z 09007KT 10SM OVC026 21/13 A3011 RMK AO2 SLP195 T02060133 $
KEVV 241629Z 08009G15KT 10SM BKN024 20/13 A3012 RMK AO2 T02000133 $
KEVV 241554Z 10007G17KT 070V130 10SM FEW024 19/13 A3011 RMK AO2 SLP194 T01940128 /
KEVV 241526Z 09011G16KT 10SM SCT023 19/13 A3012 RMK AO2 T01940128 $
KEVV 241454Z 07008KT 10SM BKN023 18/12 A3013 RMK AO2 SLP202 T01830122 57001 $
KEVV 241433Z 10007KT 10SM BKN021 17/12 A3014 RMK AO2 T01720117 $
KEVV 241354Z 09011KT 10SM SCT025 17/12 A3013 RMK AO2 SLP200 T01720122 $
KEVV 241254Z 08008KT 10SM CLR 16/12 A3014 RMK AO2 SLP205 T01560117 $
KEVV 241154Z 07006KT 10SM SCT021 BKN120 14/11 A3014 RMK AO2 SLP203 T01390106 10144 20133 51011 $
KEVV 241054Z 06005KT 10SM OVC023 14/11 A3012 RMK AO2 SLP199 T01390111 $
KEVV 240954Z AUTO 07005KT 10SM OVC019 14/11 A3012 RMK AO2 SLP197 T01440111 $
KEVV 240854Z AUTO 05004KT 10SM OVC019 14/11 A3010 RMK AO2 SLP192 T01390111 58007 $